Time;durP1;ratioP1;P1;durP2;ratioP2;P2;SDS_P1;SDS_P2;PMS_P1;PMS_P2;Temp;Humidity;BMP_temperature;BMP_pressure;BME280_temperature;BME280_humidity;BME280_pressure;Samples;Min_cycle;Max_cycle;Signal;HPM_P1;HPM_P2
2023/01/16 05:22:40;;;;;;;1.48;0.75;;;;;;;5.76;72.09;98179.00;5089080;28;20332;-64
2023/01/16 05:25:05;;;;;;;0.80;0.43;;;;;;;5.80;71.62;98185.50;5089247;28;20098;-62
2023/01/16 05:27:31;;;;;;;0.50;0.50;;;;;;;5.78;70.99;98176.97;5088664;28;20131;-63
2023/01/16 05:29:56;;;;;;;0.93;0.30;;;;;;;5.87;69.71;98167.91;5089434;28;20043;-67
2023/01/16 05:32:22;;;;;;;2.45;0.70;;;;;;;5.88;69.20;98161.63;5089166;28;20044;-64
2023/01/16 05:34:47;;;;;;;0.80;0.57;;;;;;;5.84;69.92;98149.78;5089406;28;20107;-66
2023/01/16 05:37:12;;;;;;;0.40;0.40;;;;;;;5.80;70.08;98148.53;5088512;28;20492;-67
2023/01/16 05:39:38;;;;;;;0.85;0.50;;;;;;;5.75;69.86;98133.28;5089041;28;20073;-66
2023/01/16 05:42:03;;;;;;;0.43;0.40;;;;;;;5.73;70.82;98128.16;5087525;28;20492;-67
2023/01/16 05:44:29;;;;;;;0.50;0.40;;;;;;;5.65;72.46;98127.50;5088609;28;20043;-67
2023/01/16 05:46:54;;;;;;;0.17;0.17;;;;;;;5.53;73.59;98110.56;5087007;28;20445;-67
2023/01/16 05:49:19;;;;;;;0.32;0.32;;;;;;;5.45;74.59;98100.97;5088476;28;20036;-67
2023/01/16 05:51:45;;;;;;;1.48;0.52;;;;;;;5.39;75.46;98096.44;5088491;28;20036;-67
2023/01/16 05:54:11;;;;;;;0.38;0.38;;;;;;;5.31;75.50;98086.03;5088682;28;20071;-68
2023/01/16 05:56:37;;;;;;;0.45;0.32;;;;;;;5.17;76.70;98074.56;5088287;28;20032;-67
2023/01/16 05:59:02;;;;;;;0.50;0.50;;;;;;;5.07;76.92;98064.31;5087929;28;20039;-67
2023/01/16 06:01:28;;;;;;;0.57;0.50;;;;;;;5.05;77.72;98065.53;5088220;28;20044;-65
2023/01/16 06:03:53;;;;;;;0.90;0.50;;;;;;;4.95;78.06;98057.94;5088457;28;20040;-66
2023/01/16 06:06:18;;;;;;;1.60;0.70;;;;;;;4.89;78.20;98042.88;5088182;28;20036;-66
2023/01/16 06:08:46;;;;;;;0.77;0.63;;;;;;;4.85;78.80;98031.06;5087929;28;20044;-67
2023/01/16 06:11:11;;;;;;;0.65;0.55;;;;;;;4.78;78.75;98027.56;5088295;28;20513;-66
2023/01/16 06:13:36;;;;;;;2.45;0.60;;;;;;;4.73;78.98;98020.22;5088280;28;20043;-67
2023/01/16 06:16:02;;;;;;;0.80;0.80;;;;;;;4.65;79.54;98001.06;5088034;28;20043;-65
2023/01/16 06:18:27;;;;;;;1.05;0.55;;;;;;;4.68;79.56;98001.50;5087762;28;20482;-66
2023/01/16 06:20:53;;;;;;;0.73;0.73;;;;;;;4.66;79.24;97992.97;5087807;28;20040;-67
2023/01/16 06:23:19;;;;;;;0.45;0.45;;;;;;;4.65;78.58;97991.34;5087906;28;20542;-66
2023/01/16 06:25:49;;;;;;;1.65;0.50;;;;;;;4.65;79.55;97980.78;5087807;28;20040;-65
2023/01/16 06:28:14;;;;;;;3.13;0.85;;;;;;;4.63;79.75;97982.81;5087585;28;20136;-65
2023/01/16 06:30:40;;;;;;;0.77;0.40;;;;;;;4.62;79.89;97970.59;5087886;28;20124;-67
2023/01/16 06:33:05;;;;;;;1.08;0.57;;;;;;;4.58;79.47;97970.19;5079388;28;20401;-66
2023/01/16 06:35:30;;;;;;;0.88;0.55;;;;;;;4.58;79.30;97966.75;5074087;28;20444;-66
2023/01/16 06:37:56;;;;;;;1.45;0.73;;;;;;;4.54;79.36;97961.00;5073814;28;20032;-67
2023/01/16 06:40:21;;;;;;;0.55;0.52;;;;;;;4.57;79.09;97955.38;5074054;28;20389;-66
2023/01/16 06:42:46;;;;;;;0.40;0.40;;;;;;;4.53;79.08;97948.03;5074066;28;20037;-66
2023/01/16 06:45:12;;;;;;;0.50;0.40;;;;;;;4.50;79.94;97940.47;5073772;28;20056;-66
2023/01/16 06:47:37;;;;;;;1.13;0.50;;;;;;;4.49;79.00;97941.50;5073785;28;20051;-66
2023/01/16 06:50:03;;;;;;;1.13;0.50;;;;;;;4.47;79.65;97925.06;5073881;28;20036;-65
2023/01/16 06:52:28;;;;;;;0.65;0.65;;;;;;;4.44;79.66;97914.91;5073806;28;20040;-66
2023/01/16 06:54:55;;;;;;;0.60;0.60;;;;;;;4.44;79.99;97907.00;5073800;28;20485;-67
2023/01/16 06:57:21;;;;;;;0.28;0.28;;;;;;;4.37;80.08;97909.59;5073336;28;20059;-68
2023/01/16 06:59:46;;;;;;;2.83;0.65;;;;;;;4.37;80.33;97899.03;5073575;28;20041;-67
2023/01/16 07:02:11;;;;;;;0.57;0.57;;;;;;;4.30;79.86;97890.25;5073667;28;20580;-65
2023/01/16 07:04:37;;;;;;;2.65;0.80;;;;;;;4.32;80.01;97888.25;5073807;28;20040;-58
2023/01/16 07:07:02;;;;;;;2.92;0.95;;;;;;;4.38;81.63;97882.22;5073460;28;20040;-56
2023/01/16 07:09:28;;;;;;;0.60;0.57;;;;;;;4.44;80.41;97870.91;5073497;28;20086;-58
2023/01/16 07:11:54;;;;;;;0.50;0.32;;;;;;;4.50;81.11;97870.16;5073605;28;20043;-58
2023/01/16 07:22:40;;;;;;;0.50;0.50;;;;;;;4.65;79.41;97861.31;5073135;28;20485;-67
2023/01/16 07:25:15;;;;;;;0.88;0.52;;;;;;;4.63;81.54;97846.50;5072936;28;20512;-66
2023/01/16 07:27:42;;;;;;;0.60;0.60;;;;;;;4.67;78.86;97846.09;5073033;28;20055;-66
2023/01/16 07:30:08;;;;;;;0.30;0.30;;;;;;;4.62;77.48;97822.94;5071859;28;20044;-66
2023/01/16 07:32:34;;;;;;;0.45;0.40;;;;;;;4.63;77.94;97821.94;5071822;28;20040;-66
2023/01/16 07:34:59;;;;;;;0.68;0.47;;;;;;;4.63;77.48;97817.50;5073054;28;20040;-67
2023/01/16 07:37:25;;;;;;;2.00;0.60;;;;;;;4.64;77.37;97810.41;5072676;28;20071;-67
2023/01/16 07:39:50;;;;;;;1.40;0.70;;;;;;;4.68;77.28;97800.25;5073058;28;20063;-66
2023/01/16 07:42:16;;;;;;;0.35;0.35;;;;;;;4.74;75.64;97807.38;5072949;28;20040;-66
2023/01/16 07:44:41;;;;;;;0.38;0.38;;;;;;;4.64;76.82;97797.22;5070599;28;20086;-66
2023/01/16 07:47:06;;;;;;;1.17;0.40;;;;;;;4.68;76.80;97790.53;5072542;28;20569;-66
2023/01/16 07:49:32;;;;;;;0.52;0.40;;;;;;;4.72;76.09;97775.94;5072615;28;20039;-66
2023/01/16 07:51:57;;;;;;;1.15;0.45;;;;;;;4.71;76.74;97769.03;5072599;28;20093;-67
2023/01/16 07:54:23;;;;;;;0.50;0.43;;;;;;;4.73;76.23;97764.38;5072907;28;20053;-67
2023/01/16 07:56:49;;;;;;;0.50;0.43;;;;;;;4.75;74.98;97757.06;5072588;28;20037;-66
2023/01/16 07:59:14;;;;;;;0.45;0.40;;;;;;;4.76;74.94;97757.88;5072366;28;20645;-66
2023/01/16 08:01:39;;;;;;;0.47;0.32;;;;;;;4.85;73.81;97754.09;5072718;28;20039;-66
2023/01/16 08:04:05;;;;;;;0.55;0.32;;;;;;;4.94;72.01;97742.34;5072498;28;20081;-65
2023/01/16 08:06:31;;;;;;;1.48;0.40;;;;;;;4.99;70.47;97724.09;5072403;28;20513;-66
2023/01/16 08:08:56;;;;;;;0.77;0.73;;;;;;;5.08;70.81;97733.44;5070837;28;20625;-66
2023/01/16 08:11:38;;;;;;;0.52;0.52;;;;;;;5.14;70.65;97727.38;5072220;28;20139;-66
2023/01/16 08:14:05;;;;;;;0.30;0.30;;;;;;;5.21;69.88;97716.03;5072073;28;20486;-65
2023/01/16 08:16:31;;;;;;;2.15;0.85;;;;;;;5.22;70.25;97707.94;5071815;28;20550;-66
2023/01/16 08:18:56;;;;;;;0.45;0.38;;;;;;;5.25;69.95;97710.16;5071806;28;20036;-66
2023/01/16 08:21:22;;;;;;;0.40;0.40;;;;;;;5.28;69.64;97704.47;5071951;28;20401;-66
2023/01/16 08:23:47;;;;;;;0.30;0.30;;;;;;;5.35;68.40;97696.56;5072106;28;20405;-66
2023/01/16 08:26:13;;;;;;;0.35;0.35;;;;;;;5.44;68.38;97701.44;5072374;28;20390;-66
2023/01/16 08:28:39;;;;;;;0.30;0.30;;;;;;;5.49;67.40;97686.84;5071725;28;20144;-66
2023/01/16 08:31:15;;;;;;;0.47;0.47;;;;;;;5.50;68.83;97685.81;5071791;28;20125;-66
2023/01/16 08:33:42;;;;;;;2.38;0.82;;;;;;;5.51;68.16;97693.53;5071939;28;20043;-66
2023/01/16 08:36:10;;;;;;;0.80;0.50;;;;;;;5.59;67.84;97679.31;5071703;28;20036;-66
2023/01/16 08:38:36;;;;;;;0.47;0.47;;;;;;;5.60;66.98;97709.97;5071462;28;20039;-66
2023/01/16 08:41:01;;;;;;;1.95;0.40;;;;;;;5.62;67.68;97702.69;5071585;28;20479;-65
2023/01/16 08:51:57;;;;;;;0.55;0.30;;;;;;;6.46;67.50;97657.00;5071462;28;20040;-65
2023/01/16 08:54:22;;;;;;;0.20;0.20;;;;;;;6.55;66.66;97666.31;5071455;28;20048;-65
2023/01/16 08:56:47;;;;;;;1.00;0.38;;;;;;;6.55;67.08;97650.47;5071141;28;20036;-65
2023/01/16 08:59:13;;;;;;;0.40;0.40;;;;;;;6.58;64.53;97633.34;5071032;28;20037;-66
2023/01/16 09:01:40;;;;;;;0.30;0.30;;;;;;;6.74;61.36;97630.22;5071522;28;20421;-65
2023/01/16 09:04:06;;;;;;;0.20;0.20;;;;;;;6.80;61.42;97622.25;5071397;28;20044;-65
2023/01/16 09:06:31;;;;;;;0.22;0.22;;;;;;;6.96;60.05;97614.81;5071249;28;20036;-65
2023/01/16 09:08:57;;;;;;;0.20;0.20;;;;;;;7.06;59.48;97615.16;5071147;28;20036;-66
2023/01/16 09:14:06;;;;;;;0.10;0.10;;;;;;;7.24;57.64;97609.94;5071490;28;20508;-66
2023/01/16 09:16:31;;;;;;;1.65;0.43;;;;;;;7.30;57.09;97606.44;5071372;28;20029;-66
2023/01/16 09:18:57;;;;;;;0.52;0.30;;;;;;;7.32;57.05;97607.03;5071117;28;20032;-66
2023/01/16 09:21:24;;;;;;;0.40;0.40;;;;;;;7.39;56.75;97604.31;5071247;28;20072;-66
2023/01/16 09:23:50;;;;;;;0.43;0.28;;;;;;;7.38;57.15;97601.91;5071201;28;20064;-65
2023/01/16 09:26:16;;;;;;;0.73;0.30;;;;;;;7.38;57.48;97602.69;5071175;28;20126;-66
2023/01/16 09:28:42;;;;;;;0.20;0.15;;;;;;;7.36;57.81;97604.72;5071150;28;20044;-65
2023/01/16 09:31:07;;;;;;;0.25;0.15;;;;;;;7.37;57.45;97611.69;5071052;28;20424;-65
2023/01/16 09:33:32;;;;;;;0.40;0.40;;;;;;;7.31;57.96;97594.00;5071165;28;20043;-66
2023/01/16 09:35:58;;;;;;;0.20;0.20;;;;;;;7.30;57.97;97602.94;5071591;28;20033;-66
2023/01/16 09:38:23;;;;;;;0.22;0.22;;;;;;;7.28;58.34;97594.41;5070783;28;20047;-66
2023/01/16 09:40:55;;;;;;;0.13;0.13;;;;;;;7.24;59.08;97596.72;5071107;28;20093;-65
2023/01/16 09:43:40;;;;;;;0.20;0.20;;;;;;;7.25;58.70;97594.88;5071478;28;20055;-66
2023/01/16 09:46:20;;;;;;;0.20;0.20;;;;;;;7.23;58.62;97589.75;5070932;28;20125;-65
2023/01/16 09:49:03;;;;;;;1.13;0.40;;;;;;;7.22;58.89;97588.16;5070988;28;20405;-66
2023/01/16 09:51:34;;;;;;;0.30;0.30;;;;;;;7.28;58.91;97584.63;5071020;28;20064;-65
2023/01/16 10:00:00;;;;;;;1.15;0.50;;;;;;;7.26;59.04;97573.47;5071005;28;20037;-66
2023/01/16 10:02:29;;;;;;;1.38;0.82;;;;;;;7.33;59.01;97584.81;5071453;28;20033;-64
2023/01/16 10:04:55;;;;;;;0.65;0.52;;;;;;;7.39;59.02;97574.38;5070778;28;20099;-66
2023/01/16 10:07:48;;;;;;;0.38;0.38;;;;;;;7.37;59.40;97571.13;5070681;28;20044;-68
2023/01/16 10:10:40;;;;;;;1.25;0.50;;;;;;;7.30;60.83;97558.78;5074608;28;20056;-66
2023/01/16 10:13:37;;;;;;;0.30;0.20;;;;;;;7.31;60.41;97562.22;5074526;28;20123;-65
2023/01/16 10:16:40;;;;;;;0.57;0.30;;;;;;;7.29;60.81;97554.47;5074696;28;20036;-66
2023/01/16 10:19:19;;;;;;;0.40;0.40;;;;;;;7.28;60.79;97555.50;5074209;28;20405;-66
2023/01/16 10:22:39;;;;;;;0.65;0.45;;;;;;;7.31;61.08;97555.09;5074368;28;20036;-66
2023/01/16 10:25:26;;;;;;;0.40;0.40;;;;;;;7.26;61.33;97530.28;5032029;28;20096;-66
2023/01/16 10:28:01;;;;;;;0.20;0.20;;;;;;;7.31;61.73;97533.91;5071710;28;20386;-66
2023/01/16 10:30:38;;;;;;;0.38;0.20;;;;;;;7.36;61.81;97533.22;5074250;28;20429;-66
2023/01/16 10:33:09;;;;;;;0.30;0.30;;;;;;;7.41;61.30;97537.88;5074371;28;20032;-66
2023/01/16 10:35:43;;;;;;;0.40;0.40;;;;;;;7.43;61.13;97523.38;5074177;28;20658;-66
2023/01/16 10:38:43;;;;;;;0.28;0.28;;;;;;;7.47;61.37;97521.13;5073832;28;20408;-65
2023/01/16 10:49:52;;;;;;;0.25;0.22;;;;;;;7.29;63.91;97501.53;5073983;28;20443;-65
2023/01/16 10:52:17;;;;;;;0.43;0.43;;;;;;;7.30;64.29;97502.31;5073834;28;20059;-65
2023/01/16 10:54:42;;;;;;;0.30;0.30;;;;;;;7.27;64.63;97490.34;5073746;28;20075;-65
2023/01/16 10:57:15;;;;;;;0.47;0.47;;;;;;;7.24;65.29;97485.50;5073461;28;20041;-65
2023/01/16 10:59:42;;;;;;;0.60;0.47;;;;;;;7.24;66.09;97480.22;5073781;28;20401;-66
2023/01/16 11:02:24;;;;;;;0.22;0.22;;;;;;;7.26;66.07;97478.13;5073896;28;20048;-65
2023/01/16 11:04:50;;;;;;;0.30;0.30;;;;;;;7.16;66.10;97469.88;5072474;28;20055;-65
2023/01/16 11:07:18;;;;;;;0.52;0.47;;;;;;;7.20;66.71;97463.13;5073188;28;20040;-65
2023/01/16 11:09:47;;;;;;;0.20;0.20;;;;;;;7.14;65.80;97458.69;5073528;28;20036;-64
2023/01/16 11:20:45;;;;;;;0.38;0.35;;;;;;;7.54;64.24;97414.06;5073216;28;20040;-65
2023/01/16 11:23:22;;;;;;;0.40;0.32;;;;;;;7.64;64.20;97415.41;5073491;28;20041;-65
2023/01/16 11:25:50;;;;;;;2.00;0.32;;;;;;;7.72;64.05;97405.28;5073120;28;20504;-65
2023/01/16 11:28:31;;;;;;;0.30;0.30;;;;;;;7.78;63.93;97391.13;5072743;28;20575;-65
2023/01/16 11:31:00;;;;;;;0.47;0.43;;;;;;;7.86;63.22;97385.53;5073458;28;20058;-64
2023/01/16 11:33:32;;;;;;;0.28;0.28;;;;;;;7.87;62.64;97370.44;5073426;28;20044;-64
2023/01/16 11:36:00;;;;;;;0.38;0.30;;;;;;;7.88;63.12;97374.69;5073468;28;20176;-65
2023/01/16 11:38:28;;;;;;;0.28;0.28;;;;;;;7.93;63.28;97352.81;5073173;28;20043;-65
2023/01/16 11:40:59;;;;;;;0.45;0.20;;;;;;;8.03;62.49;97356.53;5074090;28;20412;-65
2023/01/16 11:46:36;;;;;;;0.30;0.30;;;;;;;8.23;61.99;97336.88;5073084;28;20044;-65
2023/01/16 11:49:04;;;;;;;0.35;0.20;;;;;;;8.35;61.96;97330.56;5072639;28;20046;-64
2023/01/16 11:51:32;;;;;;;0.10;0.10;;;;;;;8.43;61.45;97330.22;5073081;28;20115;-65
2023/01/16 11:54:00;;;;;;;0.20;0.20;;;;;;;8.50;62.05;97318.69;5073169;28;20035;-64
2023/01/16 11:56:47;;;;;;;0.10;0.10;;;;;;;8.61;61.00;97308.09;5072904;28;20068;-64
2023/01/16 11:59:31;;;;;;;0.20;0.20;;;;;;;8.65;60.94;97317.19;5066698;28;20572;-65
2023/01/16 12:02:26;;;;;;;0.20;0.20;;;;;;;8.69;60.72;97302.44;5063033;28;20028;-65
2023/01/16 12:08:21;;;;;;;0.20;0.20;;;;;;;8.99;59.56;97282.84;5063974;28;20049;-65
2023/01/16 12:10:46;;;;;;;0.38;0.30;;;;;;;9.29;58.55;97276.53;5063890;28;20512;-65
2023/01/16 12:16:13;;;;;;;0.50;0.50;;;;;;;9.44;57.45;97251.06;5062825;28;20037;-64
2023/01/16 12:19:10;;;;;;;0.22;0.22;;;;;;;9.95;55.82;97241.28;5062776;28;20059;-64
2023/01/16 12:21:43;;;;;;;0.20;0.20;;;;;;;10.14;54.61;97243.72;5062435;28;20056;-65
2023/01/16 12:24:20;;;;;;;0.10;0.10;;;;;;;10.20;54.21;97243.53;5061335;28;20104;-64
2023/01/16 12:26:51;;;;;;;0.28;0.20;;;;;;;10.01;53.94;97224.38;5060976;28;20044;-64
2023/01/16 12:29:53;;;;;;;0.50;0.32;;;;;;;10.26;53.46;97233.81;5062286;28;20037;-65
2023/01/16 12:32:39;;;;;;;0.32;0.28;;;;;;;10.30;53.35;97210.97;5063130;28;20417;-65
2023/01/16 12:35:42;;;;;;;0.10;0.10;;;;;;;10.19;54.22;97199.38;5069095;28;20067;-67
2023/01/16 12:38:15;;;;;;;0.20;0.20;;;;;;;10.31;53.74;97196.66;5031753;28;20060;-63
2023/01/16 12:43:17;;;;;;;0.77;0.32;;;;;;;10.11;53.12;97201.66;5066311;28;20061;-65
2023/01/16 12:44:24;;;;;;;0.20;0.20;;;;;;;9.96;53.17;97189.72;5072191;28;20036;-67
2023/01/16 12:47:09;;;;;;;0.17;0.17;;;;;;;9.64;53.15;97178.06;5070891;28;20049;-66
2023/01/16 12:49:56;;;;;;;0.60;0.20;;;;;;;9.54;53.22;97165.41;5072536;28;20028;-66
2023/01/16 12:52:54;;;;;;;0.35;0.35;;;;;;;9.51;53.46;97153.41;5073229;28;20127;-66
2023/01/16 12:55:35;;;;;;;0.20;0.10;;;;;;;9.44;54.24;97150.09;5072672;28;20036;-66
2023/01/16 12:58:09;;;;;;;0.20;0.20;;;;;;;9.31;53.43;97149.59;5072315;28;20045;-66
2023/01/16 13:00:49;;;;;;;0.52;0.52;;;;;;;9.25;53.20;97133.56;5071951;28;20040;-66
2023/01/16 13:03:26;;;;;;;0.30;0.30;;;;;;;9.33;53.43;97128.94;5071773;28;20374;-66
2023/01/16 13:05:54;;;;;;;0.22;0.22;;;;;;;9.26;53.81;97150.34;5071851;28;20040;-65
2023/01/16 13:08:19;;;;;;;0.20;0.20;;;;;;;9.19;53.78;97129.25;5071873;28;20119;-65
2023/01/16 13:13:45;;;;;;;0.20;0.20;;;;;;;9.04;54.62;97120.19;5071966;28;20040;-66
2023/01/16 13:16:27;;;;;;;0.35;0.32;;;;;;;8.94;55.14;97107.56;5071789;28;20036;-66
2023/01/16 13:18:58;;;;;;;0.70;0.32;;;;;;;8.94;55.06;97119.00;5071354;28;20056;-66
2023/01/16 13:21:33;;;;;;;0.10;0.10;;;;;;;8.88;54.63;97116.47;5071407;28;20044;-66
2023/01/16 13:24:12;;;;;;;0.03;0.03;;;;;;;8.91;54.79;97118.66;5071655;28;20036;-66
2023/01/16 13:26:39;;;;;;;0.10;0.10;;;;;;;8.90;54.42;97091.28;5071248;28;20037;-66
2023/01/16 13:29:14;;;;;;;0.10;0.10;;;;;;;8.96;53.74;97078.94;5071255;28;20055;-66
2023/01/16 13:31:43;;;;;;;0.10;0.10;;;;;;;8.95;54.21;97082.63;5071513;28;20033;-66
2023/01/16 13:34:21;;;;;;;0.10;0.10;;;;;;;8.88;54.67;97055.44;5071904;28;20551;-66
2023/01/16 13:37:18;;;;;;;0.10;0.10;;;;;;;8.98;54.65;97051.09;5071838;28;20036;-66
2023/01/16 13:40:08;;;;;;;0.52;0.45;;;;;;;8.93;55.88;97051.03;5071805;28;20103;-66
2023/01/16 13:42:38;;;;;;;0.10;0.10;;;;;;;8.95;54.82;97054.22;5072743;28;20521;-66
2023/01/16 13:48:00;;;;;;;0.10;0.10;;;;;;;9.10;55.24;97052.88;5073874;28;20119;-66
2023/01/16 13:50:28;;;;;;;0.68;0.40;;;;;;;9.24;54.40;97038.22;5075198;28;20036;-66
2023/01/16 13:52:56;;;;;;;0.22;0.22;;;;;;;9.17;54.36;97033.06;5075457;28;20639;-66
2023/01/16 13:55:32;;;;;;;;;;;;;;;9.21;54.05;97050.13;5075904;28;20047;-66
2023/01/16 13:58:09;;;;;;;0.10;0.10;;;;;;;9.15;54.67;97029.84;5073824;28;19912;-66
2023/01/16 14:00:37;;;;;;;0.20;0.20;;;;;;;9.23;54.39;97012.72;5075558;28;20048;-66
2023/01/16 14:03:20;;;;;;;0.13;0.13;;;;;;;9.07;54.36;97005.56;5075088;28;20481;-66
2023/01/16 14:06:09;;;;;;;0.30;0.30;;;;;;;9.03;54.67;96985.84;5074589;28;20035;-65
2023/01/16 14:11:34;;;;;;;0.10;0.10;;;;;;;8.97;55.31;96980.44;5074523;28;20068;-66
2023/01/16 14:17:16;;;;;;;0.20;0.10;;;;;;;8.85;54.88;96977.06;5061402;28;20443;-67
2023/01/16 14:19:51;;;;;;;0.10;0.10;;;;;;;8.85;54.59;96971.75;5074470;28;20041;-66
2023/01/16 14:24:51;;;;;;;0.50;0.40;;;;;;;8.80;55.10;96954.94;5074407;28;20037;-64
2023/01/16 14:27:21;;;;;;;0.25;0.25;;;;;;;8.75;55.10;96955.69;5074037;28;20494;-66
2023/01/16 14:29:57;;;;;;;0.30;0.30;;;;;;;8.72;55.65;96950.84;5074282;28;20047;-64
2023/01/16 14:32:28;;;;;;;0.43;0.20;;;;;;;8.65;55.33;96945.69;5074197;28;20112;-65
2023/01/16 14:35:12;;;;;;;0.30;0.30;;;;;;;8.68;56.11;96947.09;5072876;28;20040;-65
2023/01/16 14:37:53;;;;;;;0.20;0.20;;;;;;;8.67;55.84;96974.63;5073924;28;20040;-65
2023/01/16 14:40:22;;;;;;;0.30;0.30;;;;;;;8.59;57.34;96946.66;5074037;28;20032;-65
2023/01/16 14:57:29;;;;;;;0.10;0.10;;;;;;;7.11;81.59;96966.81;5073577;28;20032;-65
2023/01/16 15:00:05;;;;;;;0.20;0.20;;;;;;;6.80;86.60;96971.38;5073756;28;20135;-64
2023/01/16 15:02:37;;;;;;;0.20;0.20;;;;;;;6.47;91.81;96965.81;5073763;28;20032;-64
2023/01/16 15:05:03;;;;;;;0.30;0.30;;;;;;;6.35;92.93;96954.41;5072317;28;20070;-64
2023/01/16 15:07:46;;;;;;;0.20;0.20;;;;;;;6.30;95.75;96964.84;5073283;28;20068;-65
2023/01/16 15:10:16;;;;;;;0.20;0.20;;;;;;;6.14;95.61;96948.59;5073608;28;20040;-65
2023/01/16 15:12:43;;;;;;;1.25;0.32;;;;;;;6.18;94.03;96962.94;5073556;28;20130;-64
2023/01/16 15:15:41;;;;;;;0.15;0.15;;;;;;;6.30;92.05;96943.69;5073485;28;20474;-64
2023/01/16 15:23:44;;;;;;;0.32;0.32;;;;;;;6.41;90.82;96932.34;5073229;28;20292;-65
2023/01/16 15:26:22;;;;;;;0.30;0.30;;;;;;;6.52;87.07;96928.94;5073136;28;20525;-66
2023/01/16 15:28:59;;;;;;;;;;;;;;;6.57;87.26;96934.31;5073510;28;20032;-66
2023/01/16 15:31:31;;;;;;;0.30;0.20;;;;;;;6.66;85.19;96954.13;5073122;28;19957;-66
2023/01/16 15:34:17;;;;;;;0.20;0.20;;;;;;;6.69;86.30;96958.16;5073004;28;20287;-66
2023/01/16 15:36:52;;;;;;;0.20;0.20;;;;;;;6.61;87.58;96954.00;5072914;28;20064;-67
2023/01/16 15:39:36;;;;;;;0.93;0.20;;;;;;;6.48;90.62;96978.81;5072880;28;20046;-67
2023/01/16 15:47:46;;;;;;;1.02;0.70;;;;;;;6.25;91.86;96962.84;5072644;28;20413;-64
2023/01/16 15:50:16;;;;;;;0.20;0.20;;;;;;;6.29;91.85;96965.88;5072927;28;20414;-63
2023/01/16 15:52:43;;;;;;;0.30;0.30;;;;;;;6.30;90.16;96962.19;5072558;28;20547;-64
2023/01/16 15:55:18;;;;;;;0.20;0.20;;;;;;;6.30;90.31;96970.13;5072725;28;20462;-64
2023/01/16 15:57:48;;;;;;;0.22;0.22;;;;;;;6.23;90.89;96971.03;5072264;28;20032;-63
2023/01/16 16:00:35;;;;;;;1.95;0.50;;;;;;;6.12;93.89;96960.41;5071240;28;20074;-64
2023/01/16 16:03:22;;;;;;;0.25;0.25;;;;;;;5.95;96.19;96973.44;5072577;28;20040;-63
2023/01/16 16:05:50;;;;;;;0.30;0.30;;;;;;;5.85;97.73;96962.56;5071638;28;20089;-65
2023/01/16 16:08:41;;;;;;;;;;;;;;;5.79;98.34;96974.81;5072562;28;20032;-65
2023/01/16 16:13:55;;;;;;;0.20;0.20;;;;;;;5.72;96.95;96980.19;5072813;28;20044;-65
2023/01/16 16:19:28;;;;;;;0.25;0.25;;;;;;;5.75;95.26;96984.22;5072128;28;20522;-65
2023/01/16 16:24:39;;;;;;;0.30;0.30;;;;;;;5.76;95.96;96982.38;5072175;28;20041;-65
2023/01/16 16:27:15;;;;;;;0.30;0.30;;;;;;;5.73;95.94;96984.44;5071682;28;20035;-64
2023/01/16 16:29:41;;;;;;;0.28;0.28;;;;;;;5.71;96.45;96986.50;5072062;28;20397;-65
2023/01/16 16:32:13;;;;;;;0.40;0.40;;;;;;;5.63;96.28;96978.88;5071725;28;20067;-65
2023/01/16 16:34:50;;;;;;;0.30;0.30;;;;;;;5.69;96.07;96993.84;5071880;28;20036;-64
2023/01/16 16:37:16;;;;;;;0.30;0.30;;;;;;;5.64;96.85;96996.31;5071539;28;20035;-64
2023/01/16 16:40:11;;;;;;;0.20;0.20;;;;;;;5.60;96.69;96986.41;5071785;28;20044;-63
2023/01/16 16:42:52;;;;;;;0.40;0.40;;;;;;;5.58;97.37;96970.00;5071839;28;20515;-64
2023/01/16 16:45:17;;;;;;;0.20;0.20;;;;;;;5.63;95.89;96983.34;5071634;28;20461;-65
2023/01/16 16:47:48;;;;;;;0.30;0.30;;;;;;;5.62;96.22;96997.59;5071370;28;20036;-64
2023/01/16 16:50:27;;;;;;;0.20;0.20;;;;;;;5.54;97.82;96982.84;5071694;28;20111;-65
2023/01/16 16:53:03;;;;;;;0.40;0.35;;;;;;;5.46;100.00;97001.59;5071579;28;20101;-64
2023/01/16 16:55:33;;;;;;;0.55;0.47;;;;;;;5.34;100.00;97000.69;5071728;28;20047;-64
2023/01/16 16:58:01;;;;;;;0.30;0.30;;;;;;;5.25;100.00;96989.63;5071348;28;20123;-65
2023/01/16 17:00:28;;;;;;;0.43;0.43;;;;;;;5.16;100.00;96996.22;5071741;28;20470;-64
2023/01/16 17:03:18;;;;;;;0.32;0.30;;;;;;;5.07;100.00;96995.69;5071515;28;20024;-64
2023/01/16 17:05:44;;;;;;;0.30;0.30;;;;;;;5.02;100.00;96999.97;5071376;28;20033;-62
2023/01/16 17:08:19;;;;;;;0.30;0.30;;;;;;;4.95;100.00;97010.59;5071206;28;20474;-61
2023/01/16 17:10:48;;;;;;;0.40;0.40;;;;;;;4.86;100.00;97023.25;5071588;28;20079;-63
2023/01/16 17:13:16;;;;;;;0.35;0.30;;;;;;;4.81;100.00;97024.91;5071758;28;20555;-63
2023/01/16 17:15:43;;;;;;;0.52;0.40;;;;;;;4.76;100.00;97032.66;5071185;28;20325;-65
2023/01/16 17:18:10;;;;;;;0.23;0.23;;;;;;;4.70;100.00;97034.34;5070891;28;20043;-65
2023/01/16 17:20:37;;;;;;;0.30;0.30;;;;;;;4.62;100.00;97038.03;5071219;28;20033;-65
2023/01/16 17:23:03;;;;;;;0.30;0.30;;;;;;;4.53;100.00;97034.03;5071322;28;20028;-65
2023/01/16 17:25:30;;;;;;;0.20;0.20;;;;;;;4.49;100.00;97037.28;5071380;28;20477;-65
2023/01/16 17:27:56;;;;;;;0.43;0.43;;;;;;;4.43;100.00;97049.50;5070934;28;20390;-65
2023/01/16 17:30:26;;;;;;;0.68;0.38;;;;;;;4.43;100.00;97043.41;5071763;28;20032;-65
2023/01/16 17:33:07;;;;;;;0.35;0.35;;;;;;;4.46;100.00;97028.00;5071279;28;20125;-65
2023/01/16 17:35:33;;;;;;;0.50;0.50;;;;;;;4.44;100.00;97043.22;5071325;28;20113;-66
2023/01/16 17:37:58;;;;;;;0.13;0.13;;;;;;;4.41;100.00;97019.91;5070999;28;20473;-65
2023/01/16 17:40:24;;;;;;;0.22;0.22;;;;;;;4.41;100.00;97045.47;5071240;28;20033;-63
2023/01/16 17:45:51;;;;;;;0.50;0.50;;;;;;;4.36;100.00;97033.72;5071182;28;20040;-65
2023/01/16 17:48:18;;;;;;;0.30;0.30;;;;;;;4.32;100.00;97037.00;5071199;28;20111;-65
2023/01/16 17:50:43;;;;;;;0.65;0.40;;;;;;;4.33;100.00;97046.53;5071096;28;20489;-65
2023/01/16 17:53:15;;;;;;;1.70;0.52;;;;;;;4.36;100.00;97035.53;5071114;28;20056;-65
2023/01/16 17:55:50;;;;;;;0.32;0.32;;;;;;;4.38;100.00;97030.09;5071050;28;20116;-66
2023/01/16 17:58:48;;;;;;;0.50;0.50;;;;;;;4.39;100.00;97048.31;5070862;28;20048;-65
2023/01/16 18:01:25;;;;;;;0.50;0.50;;;;;;;4.33;100.00;97025.44;5071161;28;20056;-64
2023/01/16 18:03:55;;;;;;;0.75;0.57;;;;;;;4.34;100.00;97040.22;5071058;28;20116;-65
2023/01/16 18:06:21;;;;;;;0.30;0.30;;;;;;;4.34;100.00;97048.13;5070991;28;20040;-65
2023/01/16 18:08:48;;;;;;;0.32;0.32;;;;;;;4.30;100.00;97044.28;5070840;28;20040;-65
2023/01/16 18:19:24;;;;;;;0.93;0.65;;;;;;;4.29;100.00;97076.94;5070890;28;20040;-63
2023/01/16 18:22:02;;;;;;;0.45;0.45;;;;;;;4.29;100.00;97087.47;5070888;28;20043;-66
2023/01/16 18:24:38;;;;;;;0.30;0.30;;;;;;;4.26;100.00;97093.19;5071008;28;20051;-65
2023/01/16 18:27:06;;;;;;;0.75;0.75;;;;;;;4.24;100.00;97103.13;5070931;28;20397;-65
2023/01/16 18:29:32;;;;;;;0.40;0.40;;;;;;;4.24;100.00;97118.94;5073075;28;20127;-65
2023/01/16 18:34:42;;;;;;;1.08;0.75;;;;;;;4.22;100.00;97132.31;5074545;28;20072;-65
2023/01/16 18:37:08;;;;;;;0.98;0.85;;;;;;;4.21;100.00;97156.22;5074130;28;20518;-66
2023/01/16 19:01:55;;;;;;;0.50;0.50;;;;;;;4.13;100.00;97204.69;5072578;28;20477;-65
2023/01/16 19:04:20;;;;;;;;;;;;;;;4.11;100.00;97206.72;5074569;28;20037;-65
2023/01/16 19:06:47;;;;;;;0.22;0.22;;;;;;;4.09;100.00;97209.53;5073616;28;19913;-66
2023/01/16 19:09:14;;;;;;;0.20;0.20;;;;;;;4.05;100.00;97205.72;5073268;28;20021;-65
2023/01/16 19:11:41;;;;;;;0.30;0.30;;;;;;;4.04;100.00;97229.59;5073552;28;20082;-64
2023/01/16 19:14:06;;;;;;;0.55;0.50;;;;;;;3.99;100.00;97221.53;5073510;28;20051;-64
2023/01/16 19:16:44;;;;;;;1.65;0.50;;;;;;;3.99;100.00;97216.25;5073524;28;20040;-65
2023/01/16 19:19:13;;;;;;;0.40;0.40;;;;;;;3.93;100.00;97212.63;5073280;28;20051;-66
2023/01/16 19:21:43;;;;;;;0.93;0.50;;;;;;;3.92;100.00;97220.75;5072092;28;20033;-65
2023/01/16 19:24:14;;;;;;;1.40;0.63;;;;;;;3.93;100.00;97238.97;5073575;28;20489;-65
2023/01/16 19:26:46;;;;;;;0.82;0.57;;;;;;;3.90;100.00;97231.44;5072273;28;20036;-65
2023/01/16 19:29:14;;;;;;;0.60;0.60;;;;;;;3.88;100.00;97245.84;5073090;28;20032;-65
2023/01/16 19:31:40;;;;;;;0.50;0.50;;;;;;;3.80;100.00;97241.59;5073213;28;20393;-66
2023/01/16 19:34:06;;;;;;;2.47;0.65;;;;;;;3.74;100.00;97229.25;5073156;28;20124;-65
2023/01/16 19:36:32;;;;;;;2.65;0.47;;;;;;;3.67;100.00;97218.72;5073153;28;20111;-66
2023/01/16 19:38:57;;;;;;;0.57;0.57;;;;;;;3.72;100.00;97224.19;5072750;28;20464;-65
2023/01/16 19:46:53;;;;;;;0.60;0.60;;;;;;;3.77;100.00;97247.25;5072813;28;20085;-65